Terminal Aerodrome Forecast
Issued by NWS

Home | Current Version | Previous Version | Text Only | Print | Product List | Glossary On
Versions: 1 2 3 4 5 6 7 8 9 10 11 12 13 14 15 16
000
FTUS44 KEPZ 250524
TAFLRU
TAF
KLRU 250524Z 2506/2606 16007KT P6SM VCTS SCT060CB SCT120 BKN250
     FM250700 25007KT P6SM -SHRA VCTS SCT050CB BKN100 BKN200
      TEMPO 2509/2512 VRB15G30KT -TSRA BKN050CB BKN100 BKN200
     FM251300 22007KT P6SM FEW050 FEW100 SCT250
     FM252200 24007KT P6SM SCT060 BKN100 BKN200
     FM260300 16006KT P6SM FEW060 SCT100 BKN200=

USA.gov is the U.S. government's official web portal to all federal, state and local government web resources and services.